Time;durP1;ratioP1;P1;durP2;ratioP2;P2;SDS_P1;SDS_P2;PMS_P1;PMS_P2;Temp;Humidity;BMP_temperature;BMP_pressure;BME280_temperature;BME280_humidity;BME280_pressure;Samples;Min_cycle;Max_cycle;Signal;HPM_P1;HPM_P2
2022/08/06 00:03:58;;;;;;;9.23;5.35;;;;;;;23.55;75.31;100583.02;3617168;81;99387;-82
2022/08/06 00:08:59;;;;;;;9.50;4.62;;;;;;;23.52;75.26;100592.36;3634672;81;97908;-83
2022/08/06 00:14:01;;;;;;;10.68;5.12;;;;;;;23.41;75.49;100587.17;3620446;80;99119;-84
2022/08/06 00:19:02;;;;;;;10.00;5.20;;;;;;;23.24;75.56;100602.68;3632718;81;98537;-82
2022/08/06 00:24:03;;;;;;;6.10;4.03;;;;;;;23.13;75.93;100619.11;3634233;79;98953;-87
2022/08/06 00:29:05;;;;;;;6.05;3.62;;;;;;;22.91;75.95;100621.14;3635136;79;98893;-84
2022/08/06 00:34:06;;;;;;;9.50;3.72;;;;;;;22.65;76.43;100636.50;3636823;79;98873;-87
2022/08/06 00:39:08;;;;;;;6.80;3.62;;;;;;;22.60;76.78;100645.48;3621577;80;98760;-85
2022/08/06 00:44:09;;;;;;;4.50;2.87;;;;;;;22.60;76.82;100647.50;3624520;80;98318;-85
2022/08/06 00:49:10;;;;;;;4.47;2.33;;;;;;;22.44;76.34;100669.48;3640367;79;98918;-85
2022/08/06 00:54:11;;;;;;;3.70;2.20;;;;;;;22.13;76.07;100676.11;3633331;80;98818;-83
2022/08/06 00:59:13;;;;;;;5.28;2.25;;;;;;;21.99;75.60;100686.36;3644969;79;99339;-83
2022/08/06 01:04:14;;;;;;;6.10;2.40;;;;;;;21.83;75.39;100685.86;3637919;80;98873;-83
2022/08/06 01:09:15;;;;;;;3.40;1.70;;;;;;;21.59;75.17;100700.58;3639583;80;98701;-85
2022/08/06 01:14:16;;;;;;;6.87;2.45;;;;;;;21.58;75.45;100706.02;3634435;79;98320;-83
2022/08/06 01:19:28;;;;;;;4.28;1.95;;;;;;;21.60;75.32;100703.55;3635069;81;98001;-83
2022/08/06 01:24:56;;;;;;;3.00;1.87;;;;;;;21.53;75.00;100712.94;3606256;80;98648;-86
2022/08/06 01:30:05;;;;;;;4.03;1.65;;;;;;;21.57;75.10;100736.03;3593285;81;98736;-87
2022/08/06 01:35:14;;;;;;;3.30;1.55;;;;;;;21.45;74.08;100724.78;3612921;80;98745;-86
2022/08/06 01:40:21;;;;;;;2.58;1.35;;;;;;;21.27;73.84;100728.70;3587839;81;98851;-85
2022/08/06 01:45:27;;;;;;;5.22;1.65;;;;;;;21.04;73.22;100745.11;3604728;81;99435;-84
2022/08/06 01:50:36;;;;;;;4.03;1.72;;;;;;;20.99;73.49;100754.67;3619132;80;98565;-86
2022/08/06 01:55:45;;;;;;;4.30;1.40;;;;;;;20.82;73.13;100743.30;3567329;80;98702;-84
2022/08/06 02:00:51;;;;;;;4.87;1.70;;;;;;;20.90;73.61;100737.11;3500808;82;98612;-85
2022/08/06 02:05:55;;;;;;;3.87;1.70;;;;;;;20.97;73.30;100743.11;3533722;81;98801;-83
2022/08/06 02:10:57;;;;;;;3.17;1.60;;;;;;;20.95;73.21;100739.38;3521461;82;98794;-84
2022/08/06 02:16:02;;;;;;;4.55;1.70;;;;;;;20.90;73.09;100734.31;3538462;82;98714;-87
2022/08/06 02:21:12;;;;;;;5.87;1.90;;;;;;;20.82;73.47;100734.91;3560612;80;99256;-84
2022/08/06 02:26:15;;;;;;;4.90;1.80;;;;;;;20.77;74.12;100734.03;3553775;82;31579;-84
2022/08/06 02:31:16;;;;;;;2.58;1.50;;;;;;;20.80;74.33;100755.52;3627788;80;98745;-87
2022/08/06 02:36:38;;;;;;;6.67;1.85;;;;;;;20.84;74.17;100752.03;3613753;80;98630;-84
2022/08/06 02:42:04;;;;;;;3.92;1.70;;;;;;;20.87;74.28;100767.95;3571559;81;98830;-83
2022/08/06 02:47:23;;;;;;;4.17;1.77;;;;;;;20.83;73.76;100772.84;3620838;80;98809;-81
2022/08/06 02:52:42;;;;;;;3.50;1.70;;;;;;;20.74;73.35;100775.45;3577643;80;98842;-82
2022/08/06 02:57:53;;;;;;;3.95;1.67;;;;;;;20.69;74.08;100805.34;3575486;80;98837;-85
2022/08/06 03:02:58;;;;;;;5.05;1.77;;;;;;;20.67;73.84;100808.60;3618762;80;98423;-83
2022/08/06 03:08:03;;;;;;;4.85;1.72;;;;;;;20.65;74.22;100785.09;3642406;80;31708;-83
2022/08/06 03:13:06;;;;;;;3.58;1.85;;;;;;;20.56;74.16;100808.07;3617483;80;98947;-85
2022/08/06 03:18:08;;;;;;;6.85;2.00;;;;;;;20.57;74.03;100777.48;3620083;80;98855;-87
2022/08/06 03:23:10;;;;;;;5.30;2.47;;;;;;;20.44;73.67;100800.97;3546607;81;98979;-83
2022/08/06 03:28:14;;;;;;;6.45;2.52;;;;;;;20.46;73.90;100830.67;3553008;81;98860;-84
2022/08/06 03:33:16;;;;;;;4.17;2.33;;;;;;;20.42;73.40;100858.72;3551452;80;98818;-83
2022/08/06 03:38:20;;;;;;;4.25;2.10;;;;;;;20.34;73.72;100850.92;3549739;81;31664;-83
2022/08/06 03:43:21;;;;;;;5.45;2.55;;;;;;;20.29;73.33;100859.22;3539724;82;98695;-82
2022/08/06 03:48:25;;;;;;;4.75;2.30;;;;;;;20.24;73.48;100874.30;3545767;81;99076;-85
2022/08/06 03:53:27;;;;;;;3.77;2.10;;;;;;;20.12;73.53;100891.72;3524492;81;98725;-87
2022/08/06 03:58:32;;;;;;;3.55;2.20;;;;;;;19.97;73.66;100895.98;3529519;82;98909;-86
2022/08/06 04:03:35;;;;;;;4.60;2.22;;;;;;;19.87;73.74;100884.41;3527127;82;98823;-84
2022/08/06 04:08:39;;;;;;;4.17;2.12;;;;;;;19.77;73.47;100896.56;3550137;81;31788;-86
2022/08/06 04:13:42;;;;;;;4.95;2.35;;;;;;;19.79;74.06;100910.28;3539369;81;98662;-85
2022/08/06 04:18:44;;;;;;;5.10;2.58;;;;;;;19.77;73.94;100921.70;3541646;82;98583;-83
2022/08/06 04:23:45;;;;;;;6.20;2.98;;;;;;;19.66;73.79;100930.88;3569163;80;98756;-83
2022/08/06 04:28:52;;;;;;;6.00;2.20;;;;;;;19.76;74.40;100930.70;3603622;80;98029;-81
2022/08/06 04:33:55;;;;;;;;;;;;;;;19.85;74.22;100939.92;3577561;80;98776;-83
2022/08/06 04:38:56;;;;;;;6.12;2.45;;;;;;;19.77;73.90;100942.65;3595580;81;84093;-83
2022/08/06 04:43:58;;;;;;;4.05;1.82;;;;;;;19.74;73.19;100954.69;3594123;80;98834;-85
2022/08/06 04:48:59;;;;;;;4.08;2.10;;;;;;;19.60;72.92;100969.69;3608500;80;98715;-83
2022/08/06 04:54:00;;;;;;;4.58;2.00;;;;;;;19.48;72.83;100977.88;3598156;80;98820;-89
2022/08/06 04:59:01;;;;;;;4.75;2.27;;;;;;;19.43;73.04;100969.38;3601184;80;98866;-84
2022/08/06 05:04:02;;;;;;;8.00;3.15;;;;;;;19.26;72.80;100983.02;3600223;80;98820;-82
2022/08/06 05:09:08;;;;;;;9.18;4.83;;;;;;;19.15;73.16;100994.12;3608187;80;98866;-85
2022/08/06 05:14:13;;;;;;;9.08;4.70;;;;;;;19.17;73.21;100995.88;3590788;80;98417;-84
2022/08/06 05:19:22;;;;;;;12.57;6.97;;;;;;;19.04;73.19;101004.05;3606962;80;98691;-84
2022/08/06 05:24:24;;;;;;;15.20;7.72;;;;;;;19.04;73.31;101004.05;3597096;80;98922;-84
2022/08/06 05:29:25;;;;;;;15.83;8.68;;;;;;;18.96;73.28;101002.55;3611536;80;98173;-88
2022/08/06 05:34:26;;;;;;;19.95;8.33;;;;;;;18.95;73.37;101007.15;3600575;80;98951;-84
2022/08/06 05:39:27;;;;;;;14.20;8.00;;;;;;;18.96;73.45;101009.53;3605328;80;99339;-84
2022/08/06 05:44:28;;;;;;;13.62;7.50;;;;;;;18.93;73.49;101015.96;3599179;80;98502;-83
2022/08/06 05:49:43;;;;;;;15.10;7.90;;;;;;;19.01;73.59;101027.20;3599631;80;98768;-85
2022/08/06 05:55:06;;;;;;;14.13;7.83;;;;;;;19.01;73.50;101033.40;3586441;80;99285;-82
2022/08/06 06:00:12;;;;;;;14.23;7.62;;;;;;;19.12;73.72;101035.44;3598031;80;98834;-83
2022/08/06 06:05:14;;;;;;;14.43;7.30;;;;;;;19.11;73.34;101043.00;3603616;80;99024;-86
2022/08/06 06:10:17;;;;;;;11.65;6.92;;;;;;;19.16;73.27;101044.53;3594336;80;98965;-84
2022/08/06 06:15:18;;;;;;;13.22;7.78;;;;;;;19.20;73.23;101055.04;3602539;81;98967;-82
2022/08/06 06:20:58;;;;;;;12.10;6.20;;;;;;;19.28;73.37;101045.38;3602943;80;98878;-83
2022/08/06 06:26:41;;;;;;;11.80;6.42;;;;;;;19.37;73.24;101061.80;3465947;80;31743;-83
2022/08/06 06:32:20;;;;;;;9.93;6.10;;;;;;;19.42;73.03;101078.08;3544946;80;99322;-85
2022/08/06 06:37:41;;;;;;;12.03;5.60;;;;;;;19.44;72.69;101088.21;3593433;80;98677;-85
2022/08/06 06:42:48;;;;;;;11.35;5.42;;;;;;;19.53;72.58;101085.70;3579702;80;99050;-83
2022/08/06 06:47:59;;;;;;;12.43;5.17;;;;;;;19.59;72.22;101087.39;3592704;80;99255;-85
2022/08/06 06:53:01;;;;;;;12.75;5.28;;;;;;;19.67;72.01;101089.65;3594891;80;98985;-81
2022/08/06 06:58:07;;;;;;;10.05;5.28;;;;;;;19.74;71.90;101097.94;3606957;80;98920;-83
2022/08/06 07:03:10;;;;;;;10.95;5.12;;;;;;;19.86;71.73;101110.51;3579404;80;99037;-83
2022/08/06 07:08:15;;;;;;;7.28;3.40;;;;;;;19.96;71.55;101110.95;3607567;80;31729;-84
2022/08/06 07:13:18;;;;;;;10.05;3.22;;;;;;;20.08;71.47;101111.77;3597290;80;98692;-84
2022/08/06 07:18:21;;;;;;;6.42;3.27;;;;;;;20.19;71.08;101124.96;3603463;80;98624;-84
2022/08/06 07:23:23;;;;;;;11.30;3.95;;;;;;;20.31;70.77;101116.77;3596589;80;98743;-86
2022/08/06 07:28:26;;;;;;;6.72;3.62;;;;;;;20.44;70.45;101114.91;3604924;80;99024;-84
2022/08/06 07:33:29;;;;;;;9.03;3.52;;;;;;;20.54;69.83;101127.14;3602005;80;98757;-85
2022/08/06 07:38:33;;;;;;;7.53;4.03;;;;;;;20.64;69.20;101140.92;3608713;80;25998;-83
2022/08/06 07:43:57;;;;;;;11.00;5.87;;;;;;;20.71;68.94;101139.38;3585932;80;98570;-82
2022/08/06 07:49:02;;;;;;;12.37;7.05;;;;;;;20.73;68.33;101143.16;3606132;80;98943;-85
2022/08/06 07:54:06;;;;;;;10.88;7.15;;;;;;;20.68;68.18;101144.45;3592203;80;99022;-84
2022/08/06 07:59:09;;;;;;;10.80;6.08;;;;;;;20.77;68.16;101157.88;3601538;80;98993;-86
2022/08/06 08:09:31;;;;;;;14.00;6.87;;;;;;;21.15;68.17;101164.75;3603542;80;99089;-83
2022/08/06 08:14:34;;;;;;;13.72;7.08;;;;;;;21.42;67.74;101171.75;3600003;80;98941;-84
2022/08/06 08:19:35;;;;;;;9.85;6.12;;;;;;;21.60;66.98;101182.58;3603150;80;98885;-86
2022/08/06 08:24:38;;;;;;;13.00;7.25;;;;;;;21.78;66.56;101181.59;3600342;80;98727;-84
2022/08/06 08:29:41;;;;;;;10.75;6.67;;;;;;;22.03;66.07;101190.23;3603806;80;99317;-85
2022/08/06 08:34:42;;;;;;;11.15;5.37;;;;;;;22.39;65.61;101192.35;3598394;80;98920;-84
2022/08/06 08:39:43;;;;;;;11.25;5.45;;;;;;;22.71;64.92;101204.95;3604036;80;99017;-84
2022/08/06 08:44:46;;;;;;;11.68;5.90;;;;;;;23.08;64.02;101206.55;3599251;80;98626;-84
2022/08/06 08:49:55;;;;;;;8.83;4.97;;;;;;;23.48;62.74;101205.66;3604556;80;97827;-82
2022/08/06 08:55:04;;;;;;;9.95;5.35;;;;;;;23.85;61.61;101218.95;3584496;80;98683;-84
2022/08/06 09:00:08;;;;;;;10.05;5.50;;;;;;;24.29;60.80;101214.56;3603679;80;98923;-86
2022/08/06 09:05:10;;;;;;;8.75;5.17;;;;;;;24.72;59.19;101219.57;3604704;80;99031;-86
2022/08/06 09:10:11;;;;;;;9.45;5.30;;;;;;;24.91;57.63;101234.77;3598361;80;98762;-87
2022/08/06 09:15:13;;;;;;;10.45;4.47;;;;;;;25.04;57.44;101226.28;3596396;80;98799;-86
2022/08/06 09:20:15;;;;;;;9.53;4.90;;;;;;;25.14;56.20;101236.39;3595820;80;98987;-86
2022/08/06 09:25:48;;;;;;;8.95;4.90;;;;;;;25.51;56.10;101235.45;3576877;80;99052;-82
2022/08/06 09:30:54;;;;;;;9.40;4.33;;;;;;;26.08;54.13;101231.42;3579038;80;98736;-82
2022/08/06 09:36:06;;;;;;;9.30;5.20;;;;;;;26.53;54.34;101233.63;3575930;80;99285;-83
2022/08/06 09:41:10;;;;;;;10.32;5.03;;;;;;;26.99;52.69;101223.37;3558033;80;98892;-83
2022/08/06 09:46:12;;;;;;;9.50;4.87;;;;;;;27.39;51.42;101238.75;3567508;80;98997;-85
2022/08/06 09:51:24;;;;;;;9.23;4.87;;;;;;;28.14;51.22;101224.92;3556679;80;98804;-80
2022/08/06 09:56:27;;;;;;;8.95;5.28;;;;;;;28.51;48.35;101223.51;3580668;80;26455;-80
2022/08/06 10:01:30;;;;;;;11.12;4.50;;;;;;;28.85;47.88;101226.59;3585337;81;98711;-83
2022/08/06 10:06:32;;;;;;;8.80;4.87;;;;;;;29.32;47.94;101232.20;3583438;80;98888;-84
2022/08/06 10:11:41;;;;;;;7.80;4.50;;;;;;;29.62;46.33;101229.58;3579251;80;98879;-83
2022/08/06 10:16:48;;;;;;;6.35;3.90;;;;;;;29.68;45.49;101231.08;3581477;80;98868;-81
2022/08/06 10:21:50;;;;;;;6.67;3.10;;;;;;;29.26;44.40;101225.64;3574147;80;98870;-86
2022/08/06 10:26:51;;;;;;;5.97;2.45;;;;;;;29.13;44.25;101238.52;3606408;80;31762;-82
2022/08/06 10:31:54;;;;;;;6.58;2.40;;;;;;;28.79;43.67;101226.31;3596025;80;98907;-84
2022/08/06 10:37:02;;;;;;;7.33;3.30;;;;;;;28.95;44.06;101238.02;3589241;80;98681;-84
2022/08/06 10:42:05;;;;;;;4.17;2.45;;;;;;;29.15;43.70;101238.83;3584762;80;98787;-89
2022/08/06 10:47:07;;;;;;;7.47;2.70;;;;;;;29.46;42.51;101235.70;3583496;80;99282;-84
2022/08/06 10:52:11;;;;;;;4.22;2.60;;;;;;;29.61;42.78;101242.21;3587958;80;98809;-85
2022/08/06 10:57:13;;;;;;;7.03;2.95;;;;;;;30.09;42.68;101239.31;3611893;80;98772;-80
2022/08/06 11:03:02;;;;;;;4.22;2.30;;;;;;;30.64;42.22;101238.75;3604224;80;99305;-85
2022/08/06 11:08:29;;;;;;;4.12;2.02;;;;;;;31.06;40.59;101238.28;3608727;80;26327;-88
2022/08/06 11:13:35;;;;;;;4.72;2.08;;;;;;;31.35;40.02;101248.88;3601821;80;98621;-86
2022/08/06 11:18:42;;;;;;;4.25;1.85;;;;;;;31.64;39.70;101243.59;3610666;80;98704;-81
2022/08/06 11:23:44;;;;;;;5.10;1.95;;;;;;;31.51;38.39;101248.27;3585907;80;98822;-86
2022/08/06 11:28:54;;;;;;;3.30;1.45;;;;;;;31.37;38.92;101249.14;3603443;80;98811;-86
2022/08/06 11:34:02;;;;;;;3.00;1.40;;;;;;;31.43;38.58;101252.06;3596584;80;98761;-84
2022/08/06 11:39:03;;;;;;;5.60;1.15;;;;;;;31.26;36.45;101239.06;3604528;80;99163;-82
2022/08/06 11:44:06;;;;;;;2.25;0.85;;;;;;;31.09;37.22;101250.06;3599884;80;98374;-83
2022/08/06 11:49:21;;;;;;;1.57;0.93;;;;;;;31.40;36.48;101241.67;3604656;80;98699;-82
2022/08/06 11:54:27;;;;;;;;;;;;;;;31.63;35.42;101237.13;3597239;80;98683;-86
2022/08/06 11:59:34;;;;;;;3.30;1.35;;;;;;;31.58;35.19;101244.18;3581731;80;84415;-84
2022/08/06 12:04:40;;;;;;;1.92;0.70;;;;;;;31.78;35.76;101237.83;3586046;80;98864;-85
2022/08/06 12:09:42;;;;;;;3.80;0.85;;;;;;;32.16;35.49;101235.16;3604198;80;98825;-88
2022/08/06 12:14:43;;;;;;;2.40;0.47;;;;;;;32.10;34.22;101235.09;3600731;80;98421;-88
2022/08/06 12:19:48;;;;;;;2.55;1.00;;;;;;;32.03;34.10;101248.39;3605398;80;98700;-83
2022/08/06 12:24:54;;;;;;;3.42;0.75;;;;;;;32.22;34.13;101242.47;3593814;80;98679;-87
2022/08/06 12:30:01;;;;;;;2.27;0.70;;;;;;;32.06;33.02;101240.27;3597315;81;98806;-83
2022/08/06 12:35:12;;;;;;;3.35;0.75;;;;;;;31.81;34.03;101241.08;3602792;80;98724;-88
2022/08/06 12:40:28;;;;;;;3.30;0.80;;;;;;;31.68;34.49;101245.58;3593369;80;98830;-84
2022/08/06 12:45:32;;;;;;;2.12;0.70;;;;;;;31.79;33.71;101221.52;3602257;82;98824;-82
2022/08/06 12:50:37;;;;;;;4.30;0.60;;;;;;;31.81;33.23;101220.39;3592802;81;98570;-89
2022/08/06 12:55:54;;;;;;;3.83;0.68;;;;;;;31.89;32.02;101215.78;3595816;80;98604;-82
2022/08/06 13:00:58;;;;;;;1.30;0.78;;;;;;;31.40;32.46;101226.02;3553377;80;98894;-83
2022/08/06 13:06:02;;;;;;;;;;;;;;;31.15;33.15;101226.11;3602513;81;98846;-89
2022/08/06 13:11:04;;;;;;;2.75;0.55;;;;;;;30.87;32.38;101230.68;3577116;82;84844;-83
2022/08/06 13:16:14;;;;;;;1.45;0.65;;;;;;;30.74;34.14;101228.81;3602069;81;99273;-85
2022/08/06 13:21:20;;;;;;;2.50;0.50;;;;;;;30.80;33.87;101226.85;3581904;81;99151;-80
2022/08/06 13:26:27;;;;;;;1.90;0.60;;;;;;;30.64;33.17;101214.59;3609301;80;25926;-81
2022/08/06 13:31:33;;;;;;;3.00;0.70;;;;;;;30.54;34.06;101213.78;3607332;80;98634;-88
2022/08/06 13:36:40;;;;;;;3.55;0.60;;;;;;;30.69;33.37;101218.80;3613230;80;98681;-81
2022/08/06 13:41:40;;;;;;;1.50;0.40;;;;;;;30.70;33.70;101218.31;3606954;81;98911;-81
2022/08/06 13:46:43;;;;;;;1.75;0.45;;;;;;;30.58;33.90;101222.26;3616031;80;98775;-85
2022/08/06 13:51:45;;;;;;;1.40;0.43;;;;;;;30.50;34.04;101218.88;3610703;80;99279;-81
2022/08/06 13:56:47;;;;;;;1.80;0.55;;;;;;;30.41;34.02;101219.03;3612356;81;25794;-80
2022/08/06 14:01:50;;;;;;;2.22;0.70;;;;;;;30.21;32.66;101204.16;3608925;80;98919;-83
2022/08/06 14:06:54;;;;;;;0.70;0.50;;;;;;;30.01;33.48;101208.94;3614138;80;99092;-82
2022/08/06 14:11:59;;;;;;;1.57;0.50;;;;;;;29.78;33.59;101220.58;3606477;80;98841;-81
2022/08/06 14:17:00;;;;;;;2.17;0.62;;;;;;;29.75;34.30;101224.39;3614146;80;98880;-81
2022/08/06 14:22:02;;;;;;;1.85;0.47;;;;;;;29.71;34.31;101219.56;3586743;80;98539;-81
2022/08/06 14:27:03;;;;;;;2.70;1.35;;;;;;;29.61;34.06;101224.39;3574429;80;98882;-83
2022/08/06 14:32:07;;;;;;;1.45;0.75;;;;;;;29.28;34.34;101235.09;3576186;80;98735;-80
2022/08/06 14:37:08;;;;;;;1.55;0.60;;;;;;;29.15;34.15;101228.26;3591489;80;98707;-83
2022/08/06 14:47:28;;;;;;;1.50;0.40;;;;;;;28.97;33.90;101229.03;3577059;80;98847;-82
2022/08/06 14:52:29;;;;;;;0.62;0.35;;;;;;;28.82;34.61;101233.21;3562217;80;98883;-82
2022/08/06 14:57:30;;;;;;;1.27;0.60;;;;;;;28.64;34.40;101226.26;3564428;80;98785;-83
2022/08/06 15:02:31;;;;;;;0.98;0.50;;;;;;;28.44;34.87;101234.55;3572624;81;98555;-85
2022/08/06 15:07:32;;;;;;;0.75;0.33;;;;;;;28.35;35.59;101236.00;3570651;80;98653;-85
2022/08/06 15:12:33;;;;;;;1.95;0.60;;;;;;;28.17;35.12;101228.23;3581443;81;98597;-83
2022/08/06 15:17:35;;;;;;;0.60;0.45;;;;;;;27.77;35.07;101233.34;3594165;80;98899;-84
2022/08/06 15:22:36;;;;;;;1.92;0.50;;;;;;;27.57;35.56;101229.63;3583537;80;98935;-83
2022/08/06 15:27:37;;;;;;;6.60;0.85;;;;;;;27.33;35.14;101230.14;3602854;80;98079;-84
2022/08/06 15:32:38;;;;;;;1.27;0.65;;;;;;;27.14;35.40;101227.77;3583075;80;98495;-82
2022/08/06 15:37:39;;;;;;;0.98;0.37;;;;;;;26.84;35.25;101230.89;3590186;80;98732;-82
2022/08/06 15:42:40;;;;;;;1.02;0.40;;;;;;;26.67;35.37;101235.25;3582046;80;98718;-81
2022/08/06 15:47:41;;;;;;;1.85;0.60;;;;;;;26.52;35.22;101225.77;3593272;80;98860;-81
2022/08/06 15:52:42;;;;;;;1.37;0.40;;;;;;;26.42;35.09;101225.58;3595954;80;98904;-88
2022/08/06 15:57:47;;;;;;;1.80;0.50;;;;;;;26.25;35.48;101227.10;3610128;80;98831;-84
2022/08/06 16:02:48;;;;;;;;;;;;;;;26.25;35.67;101228.52;3599225;80;98556;-91
2022/08/06 16:07:49;;;;;;;1.40;0.45;;;;;;;26.24;35.36;101237.44;3605125;80;84716;-86
2022/08/06 16:12:52;;;;;;;1.90;0.70;;;;;;;26.12;35.96;101243.36;3597998;80;98902;-83
2022/08/06 16:17:53;;;;;;;1.52;0.60;;;;;;;26.01;36.61;101238.77;3608322;80;98939;-83
2022/08/06 16:22:54;;;;;;;1.60;0.30;;;;;;;25.87;36.18;101236.45;3597294;80;98806;-83
2022/08/06 16:27:55;;;;;;;1.47;0.50;;;;;;;25.70;36.72;101237.13;3615314;80;98757;-87
2022/08/06 16:32:56;;;;;;;2.05;0.47;;;;;;;25.46;36.54;101229.00;3606557;80;98709;-82
2022/08/06 16:37:57;;;;;;;2.10;0.40;;;;;;;25.24;36.74;101245.09;3615010;80;35395;-85
2022/08/06 16:42:58;;;;;;;1.25;0.30;;;;;;;25.05;36.95;101237.71;3602563;80;98632;-84
2022/08/06 16:47:59;;;;;;;3.10;0.50;;;;;;;24.82;36.71;101243.77;3619419;80;98857;-83
2022/08/06 16:53:00;;;;;;;2.05;0.65;;;;;;;24.57;37.14;101247.39;3606328;80;98869;-83
2022/08/06 16:58:06;;;;;;;3.92;0.82;;;;;;;24.39;37.16;101244.98;3613344;80;98766;-82
2022/08/06 17:03:07;;;;;;;1.70;0.75;;;;;;;24.21;37.98;101256.03;3602139;80;98788;-83
2022/08/06 17:08:09;;;;;;;2.70;0.90;;;;;;;23.95;37.69;101266.48;3614725;81;34955;-81
2022/08/06 17:13:10;;;;;;;3.17;0.78;;;;;;;23.78;38.04;101264.16;3606360;81;98695;-83
2022/08/06 17:18:11;;;;;;;2.27;0.65;;;;;;;23.53;38.61;101266.30;3613648;81;98769;-88
2022/08/06 17:23:13;;;;;;;5.25;1.00;;;;;;;23.29;38.45;101267.80;3606302;80;98846;-89
2022/08/06 17:28:20;;;;;;;2.42;0.80;;;;;;;23.10;38.74;101272.88;3600933;80;98810;-89
2022/08/06 17:33:18;;;;;;;2.83;0.65;;;;;;;22.94;38.68;101274.31;3594638;80;98894;-86
2022/08/06 17:38:19;;;;;;;3.85;0.60;;;;;;;22.74;38.71;101277.86;3600311;80;34832;-83
2022/08/06 17:43:20;;;;;;;3.22;0.60;;;;;;;22.61;39.09;101282.58;3595048;80;98787;-84
2022/08/06 17:48:21;;;;;;;2.35;0.93;;;;;;;22.46;39.39;101286.18;3602036;80;98860;-84
2022/08/06 17:53:24;;;;;;;2.25;0.70;;;;;;;22.31;40.51;101289.10;3598477;80;99158;-83
2022/08/06 17:58:26;;;;;;;2.47;0.53;;;;;;;22.16;40.68;101292.84;3606175;80;98423;-83
2022/08/06 18:03:28;;;;;;;3.00;0.70;;;;;;;21.95;41.34;101292.52;3597199;81;98780;-82
2022/08/06 18:08:29;;;;;;;0.50;0.30;;;;;;;21.81;41.86;101296.44;3603054;80;34789;-83
2022/08/06 18:13:30;;;;;;;4.03;1.15;;;;;;;21.60;42.72;101305.84;3597067;80;98653;-82
2022/08/06 18:18:32;;;;;;;3.80;1.20;;;;;;;21.50;43.54;101320.25;3606005;80;98660;-84
2022/08/06 18:23:33;;;;;;;5.87;1.10;;;;;;;21.41;43.76;101320.02;3587320;80;98659;-82
2022/08/06 18:28:34;;;;;;;2.52;1.30;;;;;;;21.22;44.19;101329.19;3603613;80;99224;-82
2022/08/06 18:33:37;;;;;;;2.47;1.22;;;;;;;21.06;44.10;101331.87;3604884;80;98799;-81
2022/08/06 18:38:38;;;;;;;2.17;0.90;;;;;;;20.89;45.00;101346.96;3629997;79;35376;-81
2022/08/06 18:43:39;;;;;;;3.47;1.12;;;;;;;20.82;45.79;101349.05;3608727;80;98921;-81
2022/08/06 18:48:41;;;;;;;4.10;1.30;;;;;;;20.75;46.29;101349.14;3606631;80;98714;-81
2022/08/06 18:53:42;;;;;;;4.45;1.70;;;;;;;20.65;46.63;101355.72;3599892;80;98350;-81
2022/08/06 18:58:44;;;;;;;6.92;2.30;;;;;;;20.52;47.00;101356.90;3610113;81;98860;-81
2022/08/06 19:03:45;;;;;;;4.47;1.17;;;;;;;20.28;46.81;101365.02;3591477;81;98783;-82
2022/08/06 19:08:48;;;;;;;3.45;1.07;;;;;;;20.19;47.69;101370.35;3555441;80;34856;-81
2022/08/06 19:13:50;;;;;;;3.62;1.30;;;;;;;20.10;48.20;101373.48;3603983;81;98823;-82
2022/08/06 19:18:52;;;;;;;4.20;1.60;;;;;;;19.98;48.45;101373.98;3610767;80;98691;-81
2022/08/06 19:23:54;;;;;;;3.55;1.40;;;;;;;19.84;48.74;101374.94;3607303;80;98845;-81
2022/08/06 19:28:55;;;;;;;5.33;2.20;;;;;;;19.71;49.06;101375.30;3571652;80;98943;-81
2022/08/06 19:33:56;;;;;;;4.40;1.40;;;;;;;19.56;49.42;101386.42;3561820;81;98807;-81
2022/08/06 19:38:58;;;;;;;3.55;1.40;;;;;;;19.43;49.66;101380.38;3561788;81;36017;-81
2022/08/06 19:43:59;;;;;;;3.17;1.35;;;;;;;19.24;49.47;101392.14;3558124;81;98878;-81
2022/08/06 19:49:02;;;;;;;4.12;1.50;;;;;;;19.12;49.87;101398.20;3559255;81;98737;-81
2022/08/06 19:54:04;;;;;;;5.08;1.57;;;;;;;19.01;50.26;101406.64;3555078;81;98901;-82
2022/08/06 19:59:05;;;;;;;3.20;1.55;;;;;;;18.89;50.61;101401.56;3578391;81;98798;-81
2022/08/06 20:04:06;;;;;;;3.00;1.15;;;;;;;18.81;51.09;101404.81;3568372;81;99130;-82
2022/08/06 20:09:08;;;;;;;3.40;1.30;;;;;;;18.71;51.23;101406.47;3573610;81;98817;-81
2022/08/06 20:14:09;;;;;;;3.95;1.30;;;;;;;18.63;51.81;101408.33;3562868;81;98498;-82
2022/08/06 20:19:09;;;;;;;3.75;1.67;;;;;;;18.56;52.17;101415.31;3559601;80;98650;-81
2022/08/06 20:24:11;;;;;;;7.87;3.33;;;;;;;18.51;52.66;101415.16;3522107;82;98889;-81
2022/08/06 20:29:12;;;;;;;6.08;2.50;;;;;;;18.43;52.86;101416.37;3669442;79;99202;-81
2022/08/06 20:34:13;;;;;;;5.30;2.05;;;;;;;18.31;52.83;101419.59;3635346;80;98828;-81
2022/08/06 20:39:15;;;;;;;3.25;1.42;;;;;;;18.17;52.66;101417.48;3645988;80;98847;-81
2022/08/06 20:44:16;;;;;;;3.02;1.47;;;;;;;18.05;53.28;101422.88;3643164;79;98741;-81
2022/08/06 20:49:17;;;;;;;4.96;1.40;;;;;;;17.96;53.69;101424.52;3643039;79;98651;-81
2022/08/06 20:54:18;;;;;;;4.83;1.45;;;;;;;17.90;54.13;101427.52;3658232;79;98730;-81
2022/08/06 20:59:19;;;;;;;2.95;1.45;;;;;;;17.81;53.99;101427.94;3682135;79;98826;-81
2022/08/06 21:04:20;;;;;;;5.33;1.10;;;;;;;17.67;54.00;101439.12;3633168;80;98810;-81
2022/08/06 21:09:21;;;;;;;3.10;1.17;;;;;;;17.54;54.18;101440.72;3641471;79;98776;-81
2022/08/06 21:14:22;;;;;;;3.43;1.37;;;;;;;17.41;54.15;101449.29;3641221;79;98613;-83
2022/08/06 21:19:23;;;;;;;2.10;1.10;;;;;;;17.31;54.12;101461.19;3642280;80;98691;-82
2022/08/06 21:24:24;;;;;;;3.60;1.10;;;;;;;17.18;54.38;101457.22;3633715;80;99093;-81
2022/08/06 21:29:25;;;;;;;3.27;1.05;;;;;;;17.12;54.85;101471.29;3663025;79;98910;-81
2022/08/06 21:34:28;;;;;;;2.37;0.95;;;;;;;16.99;54.73;101474.27;3640171;79;98434;-80
2022/08/06 21:39:31;;;;;;;4.00;1.30;;;;;;;16.95;55.04;101484.58;3648569;79;98909;-81
2022/08/06 21:44:33;;;;;;;3.27;1.07;;;;;;;16.89;55.30;101483.38;3637457;80;98687;-81
2022/08/06 21:49:34;;;;;;;2.87;1.07;;;;;;;16.80;55.09;101475.22;3639923;79;98603;-82
2022/08/06 21:54:35;;;;;;;2.85;1.10;;;;;;;16.69;55.49;101486.33;3671265;79;98649;-81
2022/08/06 21:59:37;;;;;;;3.12;1.20;;;;;;;16.65;55.98;101488.30;3631856;80;98790;-80
2022/08/06 22:04:40;;;;;;;4.28;1.27;;;;;;;16.63;56.27;101485.09;3669625;79;99325;-80
2022/08/06 22:09:45;;;;;;;3.67;1.00;;;;;;;16.58;56.40;101481.91;3646105;80;98837;-82
2022/08/06 22:14:46;;;;;;;3.15;1.35;;;;;;;16.52;56.68;101491.20;3607101;80;98423;-80
2022/08/06 22:19:46;;;;;;;3.47;1.22;;;;;;;16.42;56.72;101498.94;3620406;80;98701;-81
2022/08/06 22:24:47;;;;;;;2.33;1.00;;;;;;;16.36;56.88;101494.87;3650846;79;98789;-81
2022/08/06 22:35:08;;;;;;;8.03;1.20;;;;;;;16.29;57.34;101501.02;3601153;81;98845;-81
2022/08/06 22:40:11;;;;;;;7.28;1.92;;;;;;;16.21;57.16;101497.41;3592769;80;99243;-81
2022/08/06 22:45:12;;;;;;;5.10;1.75;;;;;;;16.07;57.40;101493.16;3597050;80;99216;-82
2022/08/06 22:50:13;;;;;;;3.42;1.40;;;;;;;16.01;57.52;101488.34;3593626;82;98876;-81
2022/08/06 22:55:15;;;;;;;3.65;1.50;;;;;;;15.95;57.83;101482.95;3602089;80;98658;-81
2022/08/06 23:00:17;;;;;;;3.57;1.73;;;;;;;15.91;58.08;101484.94;3597941;80;98696;-81
2022/08/06 23:05:19;;;;;;;4.05;1.60;;;;;;;15.85;58.11;101484.48;3613490;80;98717;-81
2022/08/06 23:10:20;;;;;;;4.17;1.42;;;;;;;15.80;58.40;101486.23;3593021;80;98894;-82
2022/08/06 23:15:23;;;;;;;6.45;1.20;;;;;;;15.74;58.39;101485.59;3602455;80;98851;-82
2022/08/06 23:20:24;;;;;;;4.72;1.40;;;;;;;15.67;58.84;101487.75;3609832;80;98837;-81
2022/08/06 23:25:25;;;;;;;2.72;1.30;;;;;;;15.64;59.19;101473.84;3597222;81;98645;-81
2022/08/06 23:30:26;;;;;;;2.47;1.25;;;;;;;15.61;59.56;101478.19;3595312;80;98653;-81
2022/08/06 23:35:27;;;;;;;2.62;1.20;;;;;;;15.58;59.59;101484.50;3603954;80;98870;-82
2022/08/06 23:40:31;;;;;;;2.72;1.20;;;;;;;15.56;59.97;101484.67;3585848;80;98864;-81
2022/08/06 23:45:32;;;;;;;7.70;1.22;;;;;;;15.52;59.83;101484.65;3600012;80;98746;-81
2022/08/06 23:50:33;;;;;;;3.93;1.40;;;;;;;15.44;60.09;101478.05;3603631;80;99015;-81